Time;durP1;ratioP1;P1;durP2;ratioP2;P2;SDS_P1;SDS_P2;PMS_P1;PMS_P2;Temp;Humidity;BMP_temperature;BMP_pressure;BME280_temperature;BME280_humidity;BME280_pressure;Samples;Min_cycle;Max_cycle;Signal;HPM_P1;HPM_P2
2021/01/05 00:00:47;;;;;;;7.80;6.07;;;;;;;;;;5055085;28;20203;-49
2021/01/05 00:03:14;;;;;;;6.85;5.50;;;;;;;;;;5053205;28;20172;-48
2021/01/05 00:05:40;;;;;;;7.35;6.05;;;;;;;;;;5055631;28;20184;-49
2021/01/05 00:08:06;;;;;;;5.93;5.32;;;;;;;;;;5038428;28;20254;-49
2021/01/05 00:10:32;;;;;;;7.10;5.95;;;;;;;;;;5057773;28;20183;-48
2021/01/05 00:12:58;;;;;;;6.50;5.40;;;;;;;;;;5057446;28;20228;-48
2021/01/05 00:15:24;;;;;;;6.00;5.40;;;;;;;;;;5042380;28;20191;-49
2021/01/05 00:17:50;;;;;;;6.18;5.28;;;;;;;;;;5046759;28;20214;-49
2021/01/05 00:20:18;;;;;;;6.40;5.28;;;;;;;;;;5061167;28;20171;-48
2021/01/05 00:22:44;;;;;;;7.13;5.82;;;;;;;;;;5066636;28;20174;-48
2021/01/05 00:25:11;;;;;;;6.47;5.80;;;;;;;;;;5069971;28;20239;-48
2021/01/05 00:27:37;;;;;;;6.60;5.38;;;;;;;;;;5072152;28;20178;-48
2021/01/05 00:30:08;;;;;;;7.97;5.80;;;;;;;;;;5073368;28;20178;-48
2021/01/05 00:32:34;;;;;;;6.97;5.75;;;;;;;;;;5057761;28;20430;-48
2021/01/05 00:35:00;;;;;;;6.15;5.55;;;;;;;;;;5062279;28;20178;-48
2021/01/05 00:37:26;;;;;;;7.20;5.32;;;;;;;;;;5038376;28;20167;-49
2021/01/05 00:39:51;;;;;;;6.57;5.65;;;;;;;;;;5066884;28;20551;-48
2021/01/05 00:42:17;;;;;;;6.53;5.82;;;;;;;;;;5058387;28;20179;-48
2021/01/05 00:44:43;;;;;;;6.00;5.40;;;;;;;;;;5056358;28;20240;-49
2021/01/05 00:47:09;;;;;;;5.95;5.30;;;;;;;;;;5046480;28;20186;-48
2021/01/05 00:49:35;;;;;;;6.68;5.97;;;;;;;;;;5056352;28;20183;-49
2021/01/05 00:52:01;;;;;;;6.63;5.90;;;;;;;;;;5057767;28;20179;-48
2021/01/05 00:54:27;;;;;;;7.05;5.97;;;;;;;;;;5055980;28;20183;-48
2021/01/05 00:57:01;;;;;;;6.07;5.45;;;;;;;;;;5060342;28;20207;-48
2021/01/05 00:59:27;;;;;;;6.55;5.60;;;;;;;;;;5056805;28;20168;-48
2021/01/05 01:01:54;;;;;;;7.03;5.95;;;;;;;;;;5049117;28;20208;-48
2021/01/05 01:04:20;;;;;;;6.45;5.55;;;;;;;;;;5055888;28;20179;-48
2021/01/05 01:06:46;;;;;;;6.60;5.65;;;;;;;;;;5068970;28;20182;-48
2021/01/05 01:09:12;;;;;;;6.70;5.25;;;;;;;;;;5073795;28;20181;-48
2021/01/05 01:11:37;;;;;;;8.82;6.03;;;;;;;;;;5057409;28;20170;-48
2021/01/05 01:14:04;;;;;;;6.68;5.97;;;;;;;;;;5067312;28;20187;-48
2021/01/05 01:16:30;;;;;;;5.60;5.10;;;;;;;;;;5059057;28;20202;-48
2021/01/05 01:18:56;;;;;;;5.78;5.15;;;;;;;;;;5055480;28;20202;-48
2021/01/05 01:21:22;;;;;;;6.68;5.53;;;;;;;;;;5050857;28;20184;-48
2021/01/05 01:23:48;;;;;;;6.45;5.45;;;;;;;;;;5067234;28;20213;-48
2021/01/05 01:26:14;;;;;;;6.38;5.38;;;;;;;;;;5049463;28;20253;-49
2021/01/05 01:28:41;;;;;;;5.95;5.40;;;;;;;;;;5072650;28;20221;-49
2021/01/05 01:31:07;;;;;;;5.50;4.97;;;;;;;;;;5046394;28;20187;-49
2021/01/05 01:33:33;;;;;;;6.72;5.60;;;;;;;;;;5053564;28;20175;-49
2021/01/05 01:35:59;;;;;;;6.18;5.45;;;;;;;;;;5057913;28;20213;-48
2021/01/05 01:38:25;;;;;;;5.80;5.20;;;;;;;;;;5076805;28;20167;-48
2021/01/05 01:40:51;;;;;;;6.40;5.70;;;;;;;;;;5060215;28;20184;-48
2021/01/05 01:43:17;;;;;;;6.20;5.15;;;;;;;;;;5073567;28;20474;-48
2021/01/05 01:45:43;;;;;;;6.10;5.40;;;;;;;;;;5055801;28;20217;-48
2021/01/05 01:48:09;;;;;;;7.32;5.57;;;;;;;;;;5059871;28;20270;-48
2021/01/05 01:50:36;;;;;;;6.25;5.07;;;;;;;;;;5060408;28;20191;-49
2021/01/05 01:53:23;;;;;;;6.40;5.80;;;;;;;;;;5050401;28;20184;-48
2021/01/05 01:55:49;;;;;;;5.88;5.28;;;;;;;;;;5043026;28;20202;-48
2021/01/05 01:58:41;;;;;;;5.93;5.32;;;;;;;;;;5043463;28;20198;-48
2021/01/05 02:01:10;;;;;;;6.50;5.30;;;;;;;;;;5039119;28;20211;-48
2021/01/05 02:03:42;;;;;;;5.50;5.00;;;;;;;;;;5056558;28;20547;-48
2021/01/05 02:06:08;;;;;;;6.00;5.40;;;;;;;;;;5055257;28;20167;-49
2021/01/05 02:08:39;;;;;;;6.47;5.78;;;;;;;;;;5053310;28;20573;-49
2021/01/05 02:11:14;;;;;;;6.38;5.78;;;;;;;;;;5040756;28;20191;-49
2021/01/05 02:13:58;;;;;;;6.00;5.40;;;;;;;;;;5061512;28;20278;-49
2021/01/05 02:16:35;;;;;;;5.82;5.32;;;;;;;;;;5054518;28;20558;-48
2021/01/05 02:19:05;;;;;;;6.13;5.53;;;;;;;;;;5056010;28;20170;-49
2021/01/05 02:21:41;;;;;;;6.13;5.53;;;;;;;;;;5054222;28;20186;-48
2021/01/05 02:24:20;;;;;;;6.82;5.80;;;;;;;;;;5054272;28;20485;-48
2021/01/05 02:26:56;;;;;;;6.05;5.45;;;;;;;;;;5060088;28;20626;-49
2021/01/05 02:29:24;;;;;;;5.90;5.30;;;;;;;;;;5064436;28;21590;-48
2021/01/05 02:32:09;;;;;;;6.03;5.43;;;;;;;;;;5066188;28;20191;-48
2021/01/05 02:34:38;;;;;;;5.40;4.88;;;;;;;;;;5066670;28;20170;-49
2021/01/05 02:37:23;;;;;;;6.57;5.78;;;;;;;;;;5053397;28;20205;-48
2021/01/05 02:40:01;;;;;;;5.65;5.10;;;;;;;;;;5066668;28;20187;-49
2021/01/05 02:42:48;;;;;;;6.07;5.47;;;;;;;;;;5052397;28;20171;-49
2021/01/05 02:45:17;;;;;;;6.50;5.82;;;;;;;;;;5053726;28;20256;-49
2021/01/05 02:47:43;;;;;;;6.72;5.53;;;;;;;;;;5059081;28;20447;-49
2021/01/05 02:50:31;;;;;;;5.95;5.35;;;;;;;;;;5061657;28;20209;-49
2021/01/05 02:53:19;;;;;;;6.45;5.85;;;;;;;;;;5058243;28;20194;-48
2021/01/05 02:56:03;;;;;;;6.05;5.45;;;;;;;;;;5041998;28;20321;-49
2021/01/05 02:58:50;;;;;;;6.30;5.70;;;;;;;;;;5074756;28;20182;-49
2021/01/05 03:01:36;;;;;;;6.15;5.50;;;;;;;;;;5020336;28;20314;-49
2021/01/05 03:04:02;;;;;;;6.28;5.60;;;;;;;;;;5060294;28;20558;-48
2021/01/05 03:06:34;;;;;;;5.95;5.35;;;;;;;;;;5060031;28;20198;-49
2021/01/05 03:09:13;;;;;;;6.15;5.32;;;;;;;;;;5054306;28;20171;-48
2021/01/05 03:11:57;;;;;;;5.68;5.10;;;;;;;;;;5065335;28;20187;-48
2021/01/05 03:14:33;;;;;;;6.03;5.43;;;;;;;;;;5051288;28;20187;-48
2021/01/05 03:17:04;;;;;;;5.85;5.25;;;;;;;;;;5065243;28;20277;-48
2021/01/05 03:19:39;;;;;;;5.72;5.13;;;;;;;;;;5064568;28;20183;-49
2021/01/05 03:22:07;;;;;;;5.93;5.32;;;;;;;;;;5045471;28;20527;-48
2021/01/05 03:24:34;;;;;;;6.13;5.45;;;;;;;;;;5065206;28;20265;-48
2021/01/05 03:27:01;;;;;;;5.70;5.20;;;;;;;;;;5055556;28;20178;-49
2021/01/05 03:29:27;;;;;;;5.55;5.05;;;;;;;;;;5074579;28;20171;-48
2021/01/05 03:31:56;;;;;;;5.90;5.30;;;;;;;;;;5048498;28;20635;-48
2021/01/05 03:34:22;;;;;;;5.53;4.93;;;;;;;;;;5072060;28;20193;-48
2021/01/05 03:36:49;;;;;;;5.45;4.93;;;;;;;;;;5054329;28;20207;-49
2021/01/05 03:39:15;;;;;;;5.40;4.90;;;;;;;;;;5074299;28;20553;-49
2021/01/05 03:41:41;;;;;;;5.30;4.80;;;;;;;;;;5054006;28;20194;-48
2021/01/05 03:44:08;;;;;;;5.65;5.03;;;;;;;;;;5053760;28;20175;-48
2021/01/05 03:46:34;;;;;;;4.72;4.28;;;;;;;;;;5042467;28;20176;-48
2021/01/05 03:49:00;;;;;;;5.10;4.60;;;;;;;;;;5056405;28;20605;-48
2021/01/05 03:51:26;;;;;;;5.50;5.00;;;;;;;;;;5049929;28;20178;-49
2021/01/05 03:53:53;;;;;;;5.20;4.55;;;;;;;;;;5068009;28;20186;-48
2021/01/05 03:56:19;;;;;;;5.20;4.72;;;;;;;;;;5059035;28;20192;-49
2021/01/05 03:58:45;;;;;;;4.90;4.30;;;;;;;;;;5053119;28;20183;-48
2021/01/05 04:01:11;;;;;;;4.72;4.25;;;;;;;;;;5044700;28;20203;-48
2021/01/05 04:03:39;;;;;;;5.30;4.80;;;;;;;;;;5070984;28;20213;-49
2021/01/05 04:06:05;;;;;;;5.38;4.88;;;;;;;;;;5063049;28;20175;-48
2021/01/05 04:08:31;;;;;;;4.88;4.38;;;;;;;;;;5053920;28;20194;-48
2021/01/05 04:10:57;;;;;;;5.18;4.68;;;;;;;;;;5045369;28;20184;-48
2021/01/05 04:13:23;;;;;;;4.95;4.50;;;;;;;;;;5051108;28;20241;-49
2021/01/05 04:15:49;;;;;;;4.65;4.25;;;;;;;;;;5053131;28;20198;-50
2021/01/05 04:18:15;;;;;;;5.25;4.75;;;;;;;;;;5042921;28;20202;-48
2021/01/05 04:20:41;;;;;;;5.22;4.72;;;;;;;;;;5046805;28;20194;-49
2021/01/05 04:23:07;;;;;;;5.20;4.70;;;;;;;;;;5068885;28;20186;-49
2021/01/05 04:25:33;;;;;;;5.05;4.55;;;;;;;;;;5044669;28;20183;-48
2021/01/05 04:27:59;;;;;;;4.75;4.28;;;;;;;;;;5049594;28;20450;-48
2021/01/05 04:30:29;;;;;;;5.10;4.63;;;;;;;;;;5052270;28;20447;-49
2021/01/05 04:32:56;;;;;;;6.15;5.20;;;;;;;;;;5057810;28;20179;-49
2021/01/05 04:35:23;;;;;;;5.07;4.57;;;;;;;;;;5066772;28;20199;-49
2021/01/05 04:37:49;;;;;;;4.75;4.30;;;;;;;;;;5063160;28;20818;-48
2021/01/05 04:40:22;;;;;;;5.25;4.75;;;;;;;;;;5061731;28;20175;-48
2021/01/05 04:42:50;;;;;;;6.25;5.38;;;;;;;;;;5056612;28;20186;-48
2021/01/05 04:45:21;;;;;;;4.90;4.40;;;;;;;;;;5049975;28;20218;-49
2021/01/05 04:48:03;;;;;;;5.00;4.50;;;;;;;;;;5044607;28;20179;-49
2021/01/05 04:50:47;;;;;;;5.22;4.72;;;;;;;;;;5040481;28;20175;-49
2021/01/05 04:53:15;;;;;;;5.00;4.45;;;;;;;;;;5056480;28;20304;-49
2021/01/05 04:55:45;;;;;;;5.50;4.78;;;;;;;;;;5062394;28;20202;-49
2021/01/05 04:58:13;;;;;;;4.95;4.47;;;;;;;;;;5074444;28;20269;-48
2021/01/05 05:00:41;;;;;;;4.47;4.07;;;;;;;;;;5061135;28;20198;-50
2021/01/05 05:03:22;;;;;;;5.03;4.53;;;;;;;;;;5059895;28;20447;-49
2021/01/05 05:06:07;;;;;;;5.55;4.60;;;;;;;;;;5039106;28;20187;-49
2021/01/05 05:08:50;;;;;;;5.53;4.88;;;;;;;;;;5070051;28;20182;-49
2021/01/05 05:11:18;;;;;;;5.60;4.95;;;;;;;;;;5057942;28;20191;-48
2021/01/05 05:13:49;;;;;;;4.95;4.32;;;;;;;;;;5057662;28;20199;-48
2021/01/05 05:16:27;;;;;;;6.70;4.93;;;;;;;;;;5048635;28;20210;-46
2021/01/05 05:19:01;;;;;;;10.65;4.72;;;;;;;;;;5067979;28;20494;-47
2021/01/05 05:21:45;;;;;;;4.82;4.32;;;;;;;;;;5039854;28;20180;-46
2021/01/05 05:24:37;;;;;;;7.10;4.90;;;;;;;;;;5067582;28;20178;-45
2021/01/05 05:27:13;;;;;;;9.50;4.97;;;;;;;;;;5049858;28;20244;-45
2021/01/05 05:29:48;;;;;;;7.20;5.00;;;;;;;;;;5058303;28;20572;-45
2021/01/05 05:32:19;;;;;;;5.85;4.57;;;;;;;;;;5040350;28;20183;-45
2021/01/05 05:34:52;;;;;;;6.95;5.05;;;;;;;;;;5058498;28;20183;-46
2021/01/05 05:37:37;;;;;;;5.85;4.60;;;;;;;;;;5050517;28;20223;-46
2021/01/05 05:40:11;;;;;;;7.85;5.00;;;;;;;;;;5041864;28;20215;-46
2021/01/05 05:43:01;;;;;;;7.28;4.63;;;;;;;;;;5054403;28;20454;-46
2021/01/05 05:45:30;;;;;;;6.25;5.05;;;;;;;;;;5053715;28;20586;-46
2021/01/05 05:48:06;;;;;;;5.25;4.65;;;;;;;;;;5053463;28;20187;-46
2021/01/05 05:50:41;;;;;;;5.40;4.50;;;;;;;;;;5053230;28;20182;-45
2021/01/05 05:53:28;;;;;;;6.32;4.75;;;;;;;;;;5060566;28;20177;-45
2021/01/05 05:56:02;;;;;;;6.28;4.70;;;;;;;;;;5035704;28;20483;-46
2021/01/05 05:58:32;;;;;;;5.90;4.72;;;;;;;;;;5062282;28;20657;-45
2021/01/05 06:00:59;;;;;;;7.25;4.57;;;;;;;;;;5053801;28;20317;-46
2021/01/05 06:03:26;;;;;;;6.30;4.50;;;;;;;;;;5065358;28;20266;-46
2021/01/05 06:05:52;;;;;;;5.45;4.40;;;;;;;;;;5058057;28;20435;-46
2021/01/05 06:08:19;;;;;;;7.90;4.75;;;;;;;;;;5056354;28;20176;-45
2021/01/05 06:10:46;;;;;;;6.10;4.72;;;;;;;;;;5047694;28;20266;-46
2021/01/05 06:13:12;;;;;;;8.68;4.55;;;;;;;;;;5067653;28;20279;-45
2021/01/05 06:15:39;;;;;;;5.07;4.40;;;;;;;;;;5057979;28;20278;-46
2021/01/05 06:18:06;;;;;;;7.30;4.70;;;;;;;;;;5053662;28;20652;-46
2021/01/05 06:20:32;;;;;;;6.30;4.03;;;;;;;;;;5054162;28;20182;-45
2021/01/05 06:22:58;;;;;;;4.50;4.00;;;;;;;;;;5056547;28;20176;-46
2021/01/05 06:25:25;;;;;;;6.35;4.95;;;;;;;;;;5058455;28;20229;-46
2021/01/05 06:27:51;;;;;;;5.13;4.55;;;;;;;;;;5056510;28;20179;-45
2021/01/05 06:30:17;;;;;;;8.90;4.90;;;;;;;;;;5068553;28;20183;-45
2021/01/05 06:32:43;;;;;;;6.93;4.60;;;;;;;;;;5041222;28;20192;-45
2021/01/05 06:35:10;;;;;;;6.22;4.60;;;;;;;;;;5071717;28;20174;-45
2021/01/05 06:37:36;;;;;;;5.57;4.57;;;;;;;;;;5071643;28;20193;-45
2021/01/05 06:40:03;;;;;;;5.25;4.20;;;;;;;;;;5056448;28;20301;-47
2021/01/05 06:42:29;;;;;;;6.68;4.55;;;;;;;;;;5068997;28;20168;-46
2021/01/05 06:44:55;;;;;;;6.22;4.57;;;;;;;;;;5035159;28;20563;-45
2021/01/05 06:47:21;;;;;;;6.28;4.82;;;;;;;;;;5043929;28;20230;-45
2021/01/05 06:49:47;;;;;;;6.32;4.80;;;;;;;;;;5071237;28;20206;-46
2021/01/05 06:52:13;;;;;;;6.57;4.55;;;;;;;;;;5047435;28;20229;-46
2021/01/05 06:54:38;;;;;;;4.80;4.30;;;;;;;;;;5041837;28;20455;-46
2021/01/05 06:57:05;;;;;;;5.65;4.18;;;;;;;;;;5044054;28;20206;-46
2021/01/05 06:59:31;;;;;;;5.35;4.22;;;;;;;;;;5060674;28;20179;-46
2021/01/05 07:02:02;;;;;;;6.25;4.45;;;;;;;;;;5065649;28;20187;-45
2021/01/05 07:04:28;;;;;;;5.35;4.10;;;;;;;;;;5058630;28;20423;-46
2021/01/05 07:06:55;;;;;;;5.13;4.55;;;;;;;;;;5055330;28;20435;-45
2021/01/05 07:09:21;;;;;;;5.38;4.50;;;;;;;;;;5049390;28;20597;-46
2021/01/05 07:11:47;;;;;;;5.07;4.50;;;;;;;;;;5052225;28;20183;-46
2021/01/05 07:14:17;;;;;;;5.30;4.63;;;;;;;;;;5072796;28;20189;-45
2021/01/05 07:16:43;;;;;;;5.05;4.55;;;;;;;;;;5049803;28;20455;-46
2021/01/05 07:19:09;;;;;;;7.22;4.47;;;;;;;;;;5055100;28;20270;-45
2021/01/05 07:21:35;;;;;;;5.10;4.30;;;;;;;;;;5040761;28;20453;-45
2021/01/05 07:24:01;;;;;;;5.00;4.05;;;;;;;;;;5071271;28;20267;-45
2021/01/05 07:26:27;;;;;;;5.63;4.63;;;;;;;;;;5035992;28;20180;-46
2021/01/05 07:28:53;;;;;;;5.05;4.25;;;;;;;;;;5063816;28;20192;-45
2021/01/05 07:31:19;;;;;;;6.40;4.60;;;;;;;;;;5072538;28;20182;-45
2021/01/05 07:33:45;;;;;;;5.40;4.90;;;;;;;;;;5062488;28;20186;-45
2021/01/05 07:36:20;;;;;;;5.85;4.80;;;;;;;;;;5042570;28;20620;-45
2021/01/05 07:38:46;;;;;;;5.25;4.57;;;;;;;;;;5069759;28;20170;-46
2021/01/05 07:41:12;;;;;;;4.80;4.30;;;;;;;;;;5040137;28;20300;-46
2021/01/05 07:43:38;;;;;;;4.90;3.90;;;;;;;;;;5040697;28;20168;-46
2021/01/05 07:46:04;;;;;;;4.88;4.38;;;;;;;;;;5034058;28;20190;-45
2021/01/05 07:48:30;;;;;;;4.93;4.40;;;;;;;;;;5054156;28;20269;-45
2021/01/05 07:50:56;;;;;;;5.15;4.28;;;;;;;;;;5064946;28;20266;-45
2021/01/05 07:53:22;;;;;;;5.25;4.75;;;;;;;;;;5065768;28;20178;-45
2021/01/05 07:55:48;;;;;;;4.63;4.13;;;;;;;;;;5054574;28;20620;-46
2021/01/05 07:58:14;;;;;;;5.63;4.45;;;;;;;;;;5068759;28;20167;-46
2021/01/05 08:00:40;;;;;;;6.20;4.72;;;;;;;;;;5074479;28;20166;-45
2021/01/05 08:03:06;;;;;;;5.55;4.60;;;;;;;;;;5063566;28;20176;-45
2021/01/05 08:05:32;;;;;;;4.50;4.07;;;;;;;;;;5065160;28;20510;-46
2021/01/05 08:07:58;;;;;;;6.63;4.88;;;;;;;;;;5058285;28;20590;-46
2021/01/05 08:10:28;;;;;;;6.22;4.90;;;;;;;;;;5074465;28;20269;-46
2021/01/05 08:12:54;;;;;;;5.20;4.68;;;;;;;;;;5070496;28;20213;-46
2021/01/05 08:15:21;;;;;;;4.95;4.50;;;;;;;;;;5066605;28;20190;-45
2021/01/05 08:17:48;;;;;;;5.28;4.70;;;;;;;;;;5054109;28;20180;-45
2021/01/05 08:20:16;;;;;;;6.60;4.50;;;;;;;;;;5056976;28;20182;-45
2021/01/05 08:22:42;;;;;;;6.68;5.10;;;;;;;;;;5074514;28;20420;-45
2021/01/05 08:25:09;;;;;;;5.53;4.60;;;;;;;;;;5073380;28;20186;-45
2021/01/05 08:27:35;;;;;;;4.95;4.40;;;;;;;;;;5064345;28;20178;-45
2021/01/05 08:30:00;;;;;;;6.43;4.63;;;;;;;;;;5078149;28;20611;-45
2021/01/05 08:32:26;;;;;;;4.70;4.20;;;;;;;;;;5062401;28;20179;-45
2021/01/05 08:34:52;;;;;;;6.13;4.97;;;;;;;;;;5058495;28;20183;-45
2021/01/05 08:37:18;;;;;;;5.68;4.70;;;;;;;;;;5058808;28;20229;-45
2021/01/05 08:39:44;;;;;;;5.60;4.38;;;;;;;;;;5060186;28;20597;-46
2021/01/05 08:42:11;;;;;;;4.97;4.47;;;;;;;;;;5067424;28;20182;-45
2021/01/05 08:44:37;;;;;;;6.13;4.70;;;;;;;;;;5066392;28;20183;-45
2021/01/05 08:47:03;;;;;;;5.20;4.60;;;;;;;;;;5057414;28;20167;-45
2021/01/05 08:49:31;;;;;;;4.50;4.10;;;;;;;;;;5056194;28;20183;-45
2021/01/05 08:51:57;;;;;;;5.82;4.70;;;;;;;;;;5043204;28;20188;-46
2021/01/05 08:54:23;;;;;;;4.70;4.20;;;;;;;;;;5062043;28;20429;-46
2021/01/05 08:56:53;;;;;;;4.55;4.15;;;;;;;;;;5054283;28;20211;-46
2021/01/05 08:59:19;;;;;;;4.72;4.32;;;;;;;;;;5057073;28;20254;-45
2021/01/05 09:01:45;;;;;;;4.85;4.32;;;;;;;;;;5065406;28;20512;-46
2021/01/05 09:04:11;;;;;;;5.47;4.40;;;;;;;;;;5066134;28;20175;-45
2021/01/05 09:06:37;;;;;;;4.70;4.20;;;;;;;;;;5057204;28;20183;-46
2021/01/05 09:09:03;;;;;;;5.88;4.93;;;;;;;;;;5067632;28;20186;-46
2021/01/05 09:11:29;;;;;;;4.68;4.00;;;;;;;;;;5043444;28;20211;-45
2021/01/05 09:13:55;;;;;;;5.55;4.10;;;;;;;;;;5052175;28;20194;-46
2021/01/05 09:16:24;;;;;;;8.40;4.88;;;;;;;;;;5060820;28;20229;-45
2021/01/05 09:18:51;;;;;;;36.30;10.32;;;;;;;;;;5057614;28;20174;-45
2021/01/05 09:21:22;;;;;;;31.98;9.70;;;;;;;;;;5059086;28;20305;-45
2021/01/05 09:23:48;;;;;;;24.65;9.38;;;;;;;;;;5071978;28;20613;-46
2021/01/05 09:26:18;;;;;;;32.10;10.45;;;;;;;;;;5060783;28;20230;-46
2021/01/05 09:28:44;;;;;;;30.73;9.25;;;;;;;;;;5062154;28;20284;-45
2021/01/05 09:31:10;;;;;;;32.03;10.20;;;;;;;;;;5049011;28;20275;-46
2021/01/05 09:33:36;;;;;;;34.10;10.73;;;;;;;;;;5049202;28;20185;-45
2021/01/05 09:36:02;;;;;;;33.40;10.15;;;;;;;;;;5070847;28;20495;-45
2021/01/05 09:38:28;;;;;;;28.80;9.60;;;;;;;;;;5066140;28;20225;-45
2021/01/05 09:40:54;;;;;;;28.77;10.00;;;;;;;;;;5061797;28;20196;-46
2021/01/05 09:43:20;;;;;;;29.02;10.75;;;;;;;;;;5076303;28;20217;-46
2021/01/05 09:45:46;;;;;;;29.02;10.05;;;;;;;;;;5050737;28;20216;-45
2021/01/05 09:48:13;;;;;;;29.77;10.82;;;;;;;;;;5050119;28;20228;-45
2021/01/05 09:50:40;;;;;;;27.88;10.88;;;;;;;;;;5062537;28;20214;-45
2021/01/05 09:53:06;;;;;;;24.60;10.45;;;;;;;;;;5057967;28;20871;-45
2021/01/05 09:55:32;;;;;;;29.85;10.52;;;;;;;;;;5045340;28;20227;-45
2021/01/05 09:57:59;;;;;;;27.35;10.80;;;;;;;;;;5055906;28;20317;-45
2021/01/05 10:00:25;;;;;;;27.90;9.98;;;;;;;;;;5058219;28;20206;-45
2021/01/05 10:02:52;;;;;;;25.23;9.52;;;;;;;;;;5056631;28;20187;-45
2021/01/05 10:05:18;;;;;;;21.30;9.60;;;;;;;;;;5063465;28;20663;-46
2021/01/05 10:07:45;;;;;;;27.63;9.68;;;;;;;;;;5058169;28;20175;-45
2021/01/05 10:10:22;;;;;;;25.67;9.65;;;;;;;;;;5060482;28;20180;-46
2021/01/05 10:12:48;;;;;;;27.90;10.32;;;;;;;;;;5048533;28;20258;-45
2021/01/05 10:15:14;;;;;;;27.60;10.52;;;;;;;;;;5062271;28;20374;-45
2021/01/05 10:17:40;;;;;;;23.73;9.52;;;;;;;;;;5054952;28;20251;-46
2021/01/05 10:20:07;;;;;;;24.20;9.43;;;;;;;;;;5075256;28;20522;-46
2021/01/05 10:22:33;;;;;;;22.33;10.32;;;;;;;;;;5058172;28;20205;-45
2021/01/05 10:24:59;;;;;;;22.30;9.38;;;;;;;;;;5060663;28;20190;-45
2021/01/05 10:27:25;;;;;;;20.20;8.82;;;;;;;;;;5054008;28;20171;-46
2021/01/05 10:29:52;;;;;;;20.75;9.20;;;;;;;;;;5056348;28;20214;-45
2021/01/05 10:32:18;;;;;;;22.80;8.77;;;;;;;;;;5069400;28;20177;-45
2021/01/05 10:34:44;;;;;;;20.15;8.57;;;;;;;;;;5051394;28;20189;-46
2021/01/05 10:37:11;;;;;;;22.63;9.15;;;;;;;;;;5058419;28;20294;-46
2021/01/05 10:39:37;;;;;;;19.30;8.98;;;;;;;;;;5055944;28;20177;-45
2021/01/05 10:42:04;;;;;;;21.23;9.57;;;;;;;;;;5054380;28;20266;-46
2021/01/05 10:44:31;;;;;;;18.63;8.48;;;;;;;;;;5055684;28;20179;-45
2021/01/05 10:47:00;;;;;;;20.38;8.80;;;;;;;;;;5049811;28;20171;-46
2021/01/05 10:49:26;;;;;;;16.50;8.35;;;;;;;;;;5053825;28;20616;-45
2021/01/05 10:51:53;;;;;;;17.77;8.95;;;;;;;;;;5039574;28;20242;-45
2021/01/05 10:54:20;;;;;;;18.80;8.73;;;;;;;;;;5040538;28;20168;-45
2021/01/05 10:56:46;;;;;;;17.20;8.65;;;;;;;;;;5051767;28;20203;-46
2021/01/05 10:59:15;;;;;;;17.45;8.77;;;;;;;;;;5074954;28;20189;-45
2021/01/05 11:01:41;;;;;;;17.13;7.95;;;;;;;;;;5053658;28;20260;-45
2021/01/05 11:04:07;;;;;;;16.73;8.10;;;;;;;;;;5053305;28;20178;-45
2021/01/05 11:06:33;;;;;;;15.77;8.32;;;;;;;;;;5063181;28;20455;-45
2021/01/05 11:08:59;;;;;;;14.40;7.63;;;;;;;;;;5074575;28;20201;-45
2021/01/05 11:11:25;;;;;;;17.67;8.25;;;;;;;;;;5055076;28;20186;-45
2021/01/05 11:13:51;;;;;;;15.65;7.90;;;;;;;;;;5073999;28;20247;-45
2021/01/05 11:16:17;;;;;;;16.85;8.10;;;;;;;;;;5048882;28;20196;-45
2021/01/05 11:18:44;;;;;;;16.13;7.95;;;;;;;;;;5052549;28;20554;-45
2021/01/05 11:21:11;;;;;;;13.23;7.13;;;;;;;;;;5053375;28;20788;-45
2021/01/05 11:23:37;;;;;;;14.77;7.25;;;;;;;;;;5059700;28;20586;-45
2021/01/05 11:26:05;;;;;;;13.73;7.47;;;;;;;;;;5053122;28;20191;-45
2021/01/05 11:28:31;;;;;;;12.05;7.25;;;;;;;;;;5034844;28;20176;-45
2021/01/05 11:30:57;;;;;;;16.88;7.60;;;;;;;;;;5035564;28;20242;-45
2021/01/05 11:33:23;;;;;;;12.10;7.50;;;;;;;;;;5049128;28;20187;-45
2021/01/05 11:35:49;;;;;;;14.32;6.95;;;;;;;;;;5046218;28;20203;-45
2021/01/05 11:38:15;;;;;;;12.25;7.13;;;;;;;;;;5050655;28;20559;-45
2021/01/05 11:40:41;;;;;;;11.75;6.75;;;;;;;;;;5044932;28;20171;-46
2021/01/05 11:43:07;;;;;;;12.27;6.95;;;;;;;;;;5067324;28;20239;-45
2021/01/05 11:45:33;;;;;;;11.32;7.00;;;;;;;;;;5064138;28;20183;-46
2021/01/05 11:47:59;;;;;;;12.32;7.30;;;;;;;;;;5056972;28;20183;-45
2021/01/05 11:50:25;;;;;;;13.95;6.80;;;;;;;;;;5066475;28;20174;-45
2021/01/05 11:52:51;;;;;;;11.40;6.75;;;;;;;;;;5074486;28;20162;-45
2021/01/05 11:55:17;;;;;;;11.13;6.63;;;;;;;;;;5064964;28;20317;-45
2021/01/05 11:57:44;;;;;;;12.63;6.60;;;;;;;;;;5053379;28;20194;-46
2021/01/05 12:00:10;;;;;;;11.07;6.63;;;;;;;;;;5054156;28;20479;-45
2021/01/05 12:02:36;;;;;;;10.77;6.22;;;;;;;;;;5066927;28;20232;-45
2021/01/05 12:05:03;;;;;;;11.18;6.35;;;;;;;;;;5060900;28;20228;-45
2021/01/05 12:07:29;;;;;;;10.70;6.03;;;;;;;;;;5050066;28;20211;-45
2021/01/05 12:09:55;;;;;;;9.93;6.28;;;;;;;;;;5052458;28;20179;-45
2021/01/05 12:12:21;;;;;;;10.23;6.03;;;;;;;;;;5069843;28;20174;-45
2021/01/05 12:14:47;;;;;;;12.38;6.35;;;;;;;;;;5074691;28;20195;-46
2021/01/05 12:17:13;;;;;;;9.52;6.13;;;;;;;;;;5055065;28;20213;-45
2021/01/05 12:19:43;;;;;;;10.52;6.13;;;;;;;;;;5069836;28;20179;-45
2021/01/05 12:22:11;;;;;;;9.68;6.07;;;;;;;;;;5040154;28;20559;-45
2021/01/05 12:24:42;;;;;;;9.05;6.03;;;;;;;;;;5040212;28;20172;-46
2021/01/05 12:27:09;;;;;;;8.43;5.97;;;;;;;;;;5054559;28;20182;-45
2021/01/05 12:29:36;;;;;;;7.68;5.30;;;;;;;;;;5078167;28;20568;-46
2021/01/05 12:32:07;;;;;;;9.73;6.18;;;;;;;;;;5050173;28;20205;-46
2021/01/05 12:34:35;;;;;;;9.32;6.03;;;;;;;;;;5076402;28;20171;-45
2021/01/05 12:37:02;;;;;;;9.38;5.82;;;;;;;;;;5051165;28;20222;-45
2021/01/05 12:39:31;;;;;;;9.60;6.20;;;;;;;;;;5073768;28;20178;-45
2021/01/05 12:41:58;;;;;;;8.38;5.47;;;;;;;;;;5059286;28;20249;-45
2021/01/05 12:44:26;;;;;;;10.07;5.72;;;;;;;;;;5072641;28;20433;-45
2021/01/05 12:46:53;;;;;;;8.02;5.68;;;;;;;;;;5046925;28;20592;-45
2021/01/05 12:49:20;;;;;;;9.30;5.70;;;;;;;;;;5066988;28;20186;-45
2021/01/05 12:51:46;;;;;;;7.47;5.47;;;;;;;;;;5045726;28;20184;-46
2021/01/05 12:54:14;;;;;;;6.45;4.93;;;;;;;;;;5051524;28;20175;-45
2021/01/05 12:56:40;;;;;;;8.80;5.60;;;;;;;;;;5053450;28;20198;-45
2021/01/05 12:59:06;;;;;;;6.95;5.22;;;;;;;;;;5060094;28;20228;-45
2021/01/05 13:01:32;;;;;;;9.77;5.38;;;;;;;;;;5057674;28;20227;-45
2021/01/05 13:03:58;;;;;;;7.22;5.30;;;;;;;;;;5072492;28;20183;-45
2021/01/05 13:06:24;;;;;;;7.20;5.20;;;;;;;;;;5058549;28;20179;-45
2021/01/05 13:08:50;;;;;;;6.88;5.30;;;;;;;;;;5055577;28;20190;-45
2021/01/05 13:11:21;;;;;;;6.90;5.45;;;;;;;;;;5075979;28;20163;-45
2021/01/05 13:13:48;;;;;;;8.38;5.03;;;;;;;;;;5065993;28;20182;-45
2021/01/05 13:16:17;;;;;;;7.60;5.22;;;;;;;;;;5060775;28;20206;-45
2021/01/05 13:18:43;;;;;;;8.63;5.70;;;;;;;;;;5056804;28;20185;-45
2021/01/05 13:21:09;;;;;;;7.15;4.93;;;;;;;;;;5055261;28;20176;-45
2021/01/05 13:23:35;;;;;;;5.95;4.47;;;;;;;;;;5056742;28;20629;-45
2021/01/05 13:26:01;;;;;;;7.18;4.97;;;;;;;;;;5056863;28;20262;-45
2021/01/05 13:28:27;;;;;;;8.38;5.15;;;;;;;;;;5074571;28;20439;-45
2021/01/05 13:30:53;;;;;;;6.57;4.93;;;;;;;;;;5069342;28;20178;-46
2021/01/05 13:33:19;;;;;;;7.22;5.00;;;;;;;;;;5076655;28;20178;-45
2021/01/05 13:35:45;;;;;;;6.80;4.60;;;;;;;;;;5063693;28;20199;-46
2021/01/05 13:38:11;;;;;;;6.75;4.70;;;;;;;;;;5056696;28;20440;-45
2021/01/05 13:40:39;;;;;;;11.20;6.32;;;;;;;;;;5068246;28;20187;-45
2021/01/05 13:43:05;;;;;;;25.42;9.70;;;;;;;;;;5067829;28;20185;-46
2021/01/05 13:45:31;;;;;;;28.65;9.52;;;;;;;;;;5062779;28;20187;-46
2021/01/05 13:47:57;;;;;;;23.48;10.13;;;;;;;;;;5056043;28;20233;-45
2021/01/05 13:50:23;;;;;;;28.58;10.10;;;;;;;;;;5064575;28;20285;-45
2021/01/05 13:52:50;;;;;;;25.40;9.63;;;;;;;;;;5061702;28;20266;-45
2021/01/05 13:55:16;;;;;;;25.60;9.35;;;;;;;;;;5063394;28;20206;-45
2021/01/05 13:57:46;;;;;;;22.10;9.43;;;;;;;;;;5066324;28;20586;-45
2021/01/05 14:00:13;;;;;;;26.13;9.70;;;;;;;;;;5056668;28;20235;-47
2021/01/05 14:02:39;;;;;;;23.60;9.88;;;;;;;;;;5065125;28;20214;-46
2021/01/05 14:05:06;;;;;;;23.63;9.65;;;;;;;;;;5068457;28;20179;-45
2021/01/05 14:07:32;;;;;;;20.35;9.27;;;;;;;;;;5056123;28;20179;-45
2021/01/05 14:09:58;;;;;;;22.63;10.02;;;;;;;;;;5057340;28;20279;-45
2021/01/05 14:12:25;;;;;;;23.95;8.82;;;;;;;;;;5070657;28;20265;-45
2021/01/05 14:14:51;;;;;;;20.35;9.07;;;;;;;;;;5071005;28;20187;-45
2021/01/05 14:17:21;;;;;;;22.85;9.80;;;;;;;;;;5055473;28;20223;-45
2021/01/05 14:19:48;;;;;;;20.77;9.20;;;;;;;;;;5056034;28;20181;-45
2021/01/05 14:22:14;;;;;;;21.48;9.52;;;;;;;;;;5045792;28;20183;-45
2021/01/05 14:24:40;;;;;;;19.98;8.82;;;;;;;;;;5040327;28;20202;-45
2021/01/05 14:27:07;;;;;;;21.38;9.05;;;;;;;;;;5070567;28;20558;-45
2021/01/05 14:29:34;;;;;;;20.02;8.80;;;;;;;;;;5055823;28;20178;-45
2021/01/05 14:32:01;;;;;;;20.63;8.90;;;;;;;;;;5042388;28;20193;-45
2021/01/05 14:34:28;;;;;;;20.25;9.30;;;;;;;;;;5059711;28;20174;-45
2021/01/05 14:36:55;;;;;;;21.73;9.27;;;;;;;;;;5038499;28;20203;-45
2021/01/05 14:39:21;;;;;;;16.30;8.38;;;;;;;;;;5059308;28;20174;-45
2021/01/05 14:41:49;;;;;;;12.88;7.53;;;;;;;;;;5044915;28;20183;-45
2021/01/05 14:44:28;;;;;;;17.83;8.60;;;;;;;;;;5035815;28;20504;-45